Time;durP1;ratioP1;P1;durP2;ratioP2;P2;SDS_P1;SDS_P2;PMS_P1;PMS_P2;Temp;Humidity;BMP_temperature;BMP_pressure;BME280_temperature;BME280_humidity;BME280_pressure;Samples;Min_cycle;Max_cycle;Signal;HPM_P1;HPM_P2
2021/09/06 00:01:42;;;;;;;;;;;15.10;1.00;;;;;;5111032;28;20003;-69
2021/09/06 00:04:07;;;;;;;;;;;15.10;99.90;;;;;;5109346;28;20292;-69
2021/09/06 00:06:36;;;;;;;;;;;15.00;1.00;;;;;;5110966;28;19908;-70
2021/09/06 00:09:01;;;;;;;;;;;15.00;99.90;;;;;;5109697;28;20272;-69
2021/09/06 00:11:27;;;;;;;;;;;15.00;1.00;;;;;;5127423;27;19908;-69
2021/09/06 00:13:52;;;;;;;;;;;14.90;1.00;;;;;;5129900;27;19937;-70
2021/09/06 00:16:18;;;;;;;;;;;14.90;1.00;;;;;;5131203;27;19977;-69
2021/09/06 00:18:44;;;;;;;;;;;14.90;1.00;;;;;;5130299;27;19918;-71
2021/09/06 00:21:09;;;;;;;;;;;14.90;1.00;;;;;;5130934;27;19926;-69
2021/09/06 00:23:35;;;;;;;;;;;14.80;1.00;;;;;;5126720;27;19951;-69
2021/09/06 00:26:01;;;;;;;;;;;14.80;1.00;;;;;;5109783;28;19908;-69
2021/09/06 00:28:27;;;;;;;;;;;14.80;1.00;;;;;;5110115;28;20033;-71
2021/09/06 00:30:52;;;;;;;;;;;14.80;1.00;;;;;;5109966;28;19986;-70
2021/09/06 00:33:19;;;;;;;;;;;14.80;1.00;;;;;;5108347;28;20103;-71
2021/09/06 00:35:44;;;;;;;;;;;14.70;1.00;;;;;;5110129;28;19932;-70
2021/09/06 00:38:10;;;;;;;;;;;14.60;1.00;;;;;;5109416;28;20339;-69
2021/09/06 00:40:35;;;;;;;;;;;14.60;1.00;;;;;;5109394;28;20034;-70
2021/09/06 00:43:01;;;;;;;;;;;14.50;1.00;;;;;;5108930;28;20006;-69
2021/09/06 00:45:26;;;;;;;;;;;14.50;58.20;;;;;;5110131;28;19922;-72
2021/09/06 00:47:52;;;;;;;;;;;14.50;99.90;;;;;;5109660;28;19931;-69
2021/09/06 00:50:17;;;;;;;;;;;14.40;99.90;;;;;;5103364;28;20364;-69
2021/09/06 00:52:44;;;;;;;;;;;14.40;99.90;;;;;;5088496;28;19969;-70
2021/09/06 00:55:11;;;;;;;;;;;14.40;78.40;;;;;;5088365;28;19920;-70
2021/09/06 00:57:37;;;;;;;;;;;14.40;95.50;;;;;;5072459;28;19908;-71
2021/09/06 01:00:06;;;;;;;;;;;14.30;99.90;;;;;;5090075;28;19914;-70
2021/09/06 01:02:32;;;;;;;;;;;14.30;99.90;;;;;;5101196;28;19912;-69
2021/09/06 01:04:57;;;;;;;;;;;14.20;99.90;;;;;;5109014;28;20309;-69
2021/09/06 01:07:23;;;;;;;;;;;14.10;99.90;;;;;;5114218;28;20336;-69
2021/09/06 01:09:48;;;;;;;;;;;14.00;99.90;;;;;;5118368;27;19969;-69
2021/09/06 01:12:14;;;;;;;;;;;14.00;99.90;;;;;;5136755;27;19911;-70
2021/09/06 01:14:40;;;;;;;;;;;13.90;99.90;;;;;;5137246;27;19920;-70
2021/09/06 01:17:05;;;;;;;;;;;14.00;99.90;;;;;;5137450;27;20276;-71
2021/09/06 01:19:31;;;;;;;;;;;14.00;99.90;;;;;;5136952;27;20010;-70
2021/09/06 01:21:56;;;;;;;;;;;14.00;99.90;;;;;;5137112;27;19915;-70
2021/09/06 01:24:22;;;;;;;;;;;13.90;1.00;;;;;;5126888;27;19907;-70
2021/09/06 01:26:48;;;;;;;;;;;13.90;1.00;;;;;;5116870;28;20009;-70
2021/09/06 01:29:14;;;;;;;;;;;13.90;1.00;;;;;;5115748;28;20280;-71
2021/09/06 01:31:39;;;;;;;;;;;13.90;1.00;;;;;;5116105;28;19916;-70
2021/09/06 01:34:05;;;;;;;;;;;13.90;1.00;;;;;;5115027;28;19918;-70
2021/09/06 01:36:31;;;;;;;;;;;13.90;1.00;;;;;;5116428;28;19914;-69
2021/09/06 01:38:56;;;;;;;;;;;13.90;99.90;;;;;;5115161;28;19908;-70
2021/09/06 01:41:22;;;;;;;;;;;13.90;99.90;;;;;;5115875;28;19937;-70
2021/09/06 01:43:47;;;;;;;;;;;13.90;1.00;;;;;;5115251;28;20287;-71
2021/09/06 01:46:13;;;;;;;;;;;13.80;1.00;;;;;;5116356;28;19911;-70
2021/09/06 01:48:38;;;;;;;;;;;13.80;1.00;;;;;;5097148;28;19907;-70
2021/09/06 01:51:04;;;;;;;;;;;13.70;1.00;;;;;;5115982;28;20284;-70
2021/09/06 01:53:29;;;;;;;;;;;13.70;1.00;;;;;;5114139;28;20006;-70
2021/09/06 01:55:55;;;;;;;;;;;13.70;1.00;;;;;;5115862;28;19923;-70
2021/09/06 01:58:20;;;;;;;;;;;13.70;1.00;;;;;;5115788;28;19947;-69
2021/09/06 02:00:46;;;;;;;;;;;13.70;1.00;;;;;;5115770;28;19907;-70
2021/09/06 02:03:12;;;;;;;;;;;13.70;1.00;;;;;;5114611;28;19907;-69
2021/09/06 02:05:37;;;;;;;;;;;13.60;1.00;;;;;;5115695;28;20365;-73
2021/09/06 02:08:03;;;;;;;;;;;13.60;1.00;;;;;;5116584;28;19912;-70
2021/09/06 02:10:28;;;;;;;;;;;13.60;1.00;;;;;;5115407;28;19913;-71
2021/09/06 02:12:54;;;;;;;;;;;13.50;1.00;;;;;;5115796;28;20333;-71
2021/09/06 02:15:19;;;;;;;;;;;13.50;1.00;;;;;;5116026;28;19927;-71
2021/09/06 02:17:45;;;;;;;;;;;13.50;1.00;;;;;;5114835;28;20306;-70
2021/09/06 02:20:10;;;;;;;;;;;13.50;1.00;;;;;;5094104;28;19911;-71
2021/09/06 02:22:36;;;;;;;;;;;13.50;1.00;;;;;;5112419;28;19972;-71
2021/09/06 02:25:02;;;;;;;;;;;13.50;1.00;;;;;;5111099;28;19916;-71
2021/09/06 02:27:28;;;;;;;;;;;13.50;1.00;;;;;;5112571;28;19951;-71
2021/09/06 02:29:53;;;;;;;;;;;13.40;1.00;;;;;;5111691;28;19912;-70
2021/09/06 02:32:18;;;;;;;;;;;13.40;1.00;;;;;;5111995;28;19951;-71
2021/09/06 02:34:44;;;;;;;;;;;13.40;1.00;;;;;;5111408;28;19918;-71
2021/09/06 02:37:09;;;;;;;;;;;13.30;1.00;;;;;;5112204;28;19944;-70
2021/09/06 02:39:36;;;;;;;;;;;13.30;1.00;;;;;;5110613;28;20002;-71
2021/09/06 02:42:02;;;;;;;;;;;13.30;1.00;;;;;;5111485;28;19908;-70
2021/09/06 02:44:30;;;;;;;;;;;13.30;1.00;;;;;;5111433;28;19914;-70
2021/09/06 02:46:55;;;;;;;;;;;13.20;1.00;;;;;;5112329;28;20014;-71
2021/09/06 02:49:21;;;;;;;;;;;13.20;1.00;;;;;;5111132;28;20006;-71
2021/09/06 02:51:46;;;;;;;;;;;13.20;1.00;;;;;;5111235;28;19977;-69
2021/09/06 02:54:12;;;;;;;;;;;13.20;1.00;;;;;;5110499;28;19931;-71
2021/09/06 02:56:38;;;;;;;;;;;13.10;1.00;;;;;;5111496;28;19908;-71
2021/09/06 02:59:03;;;;;;;;;;;13.10;1.00;;;;;;5111323;28;19961;-71
2021/09/06 03:01:29;;;;;;;;;;;13.10;1.00;;;;;;5110825;28;20284;-70
2021/09/06 03:03:54;;;;;;;;;;;13.10;1.00;;;;;;5110087;28;20007;-71
2021/09/06 03:06:20;;;;;;;;;;;13.10;1.00;;;;;;5111475;28;19908;-71
2021/09/06 03:08:45;;;;;;;;;;;13.00;1.00;;;;;;5110379;28;20015;-71
2021/09/06 03:11:11;;;;;;;;;;;13.00;1.00;;;;;;5107171;27;19911;-70
2021/09/06 03:13:36;;;;;;;;;;;12.90;1.00;;;;;;5130574;27;19939;-71
2021/09/06 03:16:02;;;;;;;;;;;12.90;1.00;;;;;;5131628;27;20046;-71
2021/09/06 03:18:27;;;;;;;;;;;12.90;1.00;;;;;;5131179;27;19998;-70
2021/09/06 03:20:53;;;;;;;;;;;12.90;1.00;;;;;;5131858;27;19915;-71
2021/09/06 03:23:18;;;;;;;;;;;12.80;1.00;;;;;;5130434;27;19912;-70
2021/09/06 03:25:44;;;;;;;;;;;12.80;1.00;;;;;;5110206;28;20234;-71
2021/09/06 03:28:09;;;;;;;;;;;12.80;1.00;;;;;;5110546;28;20006;-72
2021/09/06 03:30:35;;;;;;;;;;;12.70;1.00;;;;;;5109696;28;19908;-71
2021/09/06 03:33:00;;;;;;;;;;;12.70;1.00;;;;;;5109776;28;19919;-71
2021/09/06 03:35:26;;;;;;;;;;;12.70;1.00;;;;;;5110692;28;20403;-71
2021/09/06 03:37:52;;;;;;;;;;;12.70;1.00;;;;;;5110649;28;20091;-71
2021/09/06 03:40:17;;;;;;;;;;;12.70;1.00;;;;;;5110036;28;19960;-71
2021/09/06 03:42:42;;;;;;;;;;;12.60;1.00;;;;;;5110155;28;19908;-71
2021/09/06 03:45:08;;;;;;;;;;;12.60;1.00;;;;;;5110770;28;19912;-71
2021/09/06 03:47:34;;;;;;;;;;;12.60;1.00;;;;;;5111033;28;19915;-71
2021/09/06 03:50:00;;;;;;;;;;;12.60;1.00;;;;;;5106155;28;19916;-71
2021/09/06 03:52:25;;;;;;;;;;;12.50;1.00;;;;;;5089387;28;20075;-71
2021/09/06 03:54:50;;;;;;;;;;;12.60;1.00;;;;;;5088226;28;20053;-71
2021/09/06 03:57:16;;;;;;;;;;;12.50;1.00;;;;;;5090232;28;19994;-70
2021/09/06 03:59:41;;;;;;;;;;;12.50;1.00;;;;;;5089682;28;19908;-70
2021/09/06 04:02:07;;;;;;;;;;;12.40;1.00;;;;;;5089393;28;20261;-71
2021/09/06 04:04:32;;;;;;;;;;;12.40;1.00;;;;;;5089329;28;19908;-71
2021/09/06 04:06:58;;;;;;;;;;;12.40;1.00;;;;;;5090277;28;20024;-70
2021/09/06 04:09:24;;;;;;;;;;;12.30;1.00;;;;;;5088916;28;19943;-70
2021/09/06 04:11:49;;;;;;;;;;;12.40;1.00;;;;;;5109475;28;19916;-71
2021/09/06 04:14:16;;;;;;;;;;;12.30;1.00;;;;;;5109708;28;19985;-72
2021/09/06 04:16:42;;;;;;;;;;;12.30;1.00;;;;;;5110347;28;20319;-71
2021/09/06 04:19:07;;;;;;;;;;;12.30;1.00;;;;;;5109963;28;19914;-71
2021/09/06 04:21:33;;;;;;;;;;;12.30;1.00;;;;;;5110310;28;19934;-71
2021/09/06 04:23:58;;;;;;;;;;;12.30;1.00;;;;;;5108504;28;19995;-71
2021/09/06 04:26:24;;;;;;;;;;;12.20;1.00;;;;;;5109506;28;19908;-71
2021/09/06 04:28:51;;;;;;;;;;;12.20;1.00;;;;;;5109631;28;20056;-71
2021/09/06 04:31:17;;;;;;;;;;;12.20;1.00;;;;;;5105454;28;19951;-71
2021/09/06 04:33:42;;;;;;;;;;;12.10;1.00;;;;;;5106852;28;19908;-69
2021/09/06 04:36:08;;;;;;;;;;;12.10;1.00;;;;;;5109848;28;19919;-71
2021/09/06 04:38:33;;;;;;;;;;;12.10;1.00;;;;;;5108274;28;19915;-70
2021/09/06 04:40:59;;;;;;;;;;;12.10;1.00;;;;;;5108823;28;19916;-70
2021/09/06 04:43:24;;;;;;;;;;;12.10;1.00;;;;;;5108575;28;20002;-70
2021/09/06 04:45:50;;;;;;;;;;;12.10;1.00;;;;;;5109785;28;19907;-71
2021/09/06 04:48:15;;;;;;;;;;;12.10;1.00;;;;;;5106643;28;19971;-70
2021/09/06 04:50:41;;;;;;;;;;;12.10;1.00;;;;;;5106164;28;19939;-69
2021/09/06 04:53:06;;;;;;;;;;;12.10;1.00;;;;;;5105551;28;19912;-71
2021/09/06 04:55:32;;;;;;;;;;;12.20;1.00;;;;;;5105771;28;19912;-70
2021/09/06 04:57:57;;;;;;;;;;;12.20;1.00;;;;;;5106685;28;19912;-71
2021/09/06 05:00:23;;;;;;;;;;;12.20;1.00;;;;;;5106545;28;19908;-70
2021/09/06 05:02:49;;;;;;;;;;;12.30;1.00;;;;;;5105917;28;19965;-70
2021/09/06 05:05:14;;;;;;;;;;;12.30;1.00;;;;;;5106428;28;19908;-70
2021/09/06 05:07:40;;;;;;;;;;;12.40;1.00;;;;;;5106619;28;19994;-69
2021/09/06 05:10:05;;;;;;;;;;;12.40;1.00;;;;;;5105495;28;19912;-72
2021/09/06 05:12:31;;;;;;;;;;;12.50;1.00;;;;;;5106204;28;20364;-71
2021/09/06 05:14:56;;;;;;;;;;;12.60;1.00;;;;;;5105980;28;19922;-69
2021/09/06 05:17:22;;;;;;;;;;;12.70;1.00;;;;;;5106806;28;20375;-70
2021/09/06 05:19:47;;;;;;;;;;;12.80;1.00;;;;;;5105628;28;19908;-71
2021/09/06 05:22:12;;;;;;;;;;;12.90;1.00;;;;;;5105699;28;20833;-70
2021/09/06 05:24:39;;;;;;;;;;;13.00;1.00;;;;;;5104646;28;19912;-70
2021/09/06 05:27:05;;;;;;;;;;;13.10;1.00;;;;;;5106278;28;20003;-70
2021/09/06 05:29:30;;;;;;;;;;;13.20;1.00;;;;;;5105555;28;19918;-70
2021/09/06 05:31:55;;;;;;;;;;;13.80;99.90;;;;;;5105613;28;20399;-72
2021/09/06 05:34:21;;;;;;;;;;;14.80;1.00;;;;;;5105154;28;19967;-72
2021/09/06 05:36:46;;;;;;;;;;;15.90;25.60;;;;;;5103759;28;20229;-70
2021/09/06 05:39:12;;;;;;;;;;;17.00;99.90;;;;;;5104526;28;19938;-72
2021/09/06 05:41:38;;;;;;;;;;;17.90;1.00;;;;;;5085763;28;20555;-69
2021/09/06 05:44:05;;;;;;;;;;;19.00;1.00;;;;;;5097758;28;19998;-70
2021/09/06 05:46:31;;;;;;;;;;;19.70;99.90;;;;;;5105868;28;19912;-72
2021/09/06 05:48:56;;;;;;;;;;;20.50;99.90;;;;;;5105699;28;20470;-72
2021/09/06 05:51:21;;;;;;;;;;;21.10;99.90;;;;;;5104256;28;19912;-70
2021/09/06 05:53:47;;;;;;;;;;;21.80;99.90;;;;;;5105659;28;19912;-69
2021/09/06 05:56:13;;;;;;;;;;;22.60;99.90;;;;;;5109848;28;19923;-70
2021/09/06 05:58:38;;;;;;;;;;;23.40;99.90;;;;;;5110306;28;19912;-71
2021/09/06 06:01:04;;;;;;;;;;;23.90;99.90;;;;;;5109523;28;20007;-71
2021/09/06 06:03:29;;;;;;;;;;;24.50;99.90;;;;;;5108990;28;19916;-72
2021/09/06 06:05:55;;;;;;;;;;;24.80;99.90;;;;;;5109221;28;19994;-71
2021/09/06 06:08:20;;;;;;;;;;;25.40;99.90;;;;;;5109254;28;19970;-71
2021/09/06 06:10:47;;;;;;;;;;;26.20;99.90;;;;;;5097481;28;20372;-71
2021/09/06 06:13:12;;;;;;;;;;;26.60;99.90;;;;;;5088652;28;19943;-71
2021/09/06 06:15:38;;;;;;;;;;;27.00;99.90;;;;;;5089520;28;20280;-71
2021/09/06 06:18:03;;;;;;;;;;;27.20;99.90;;;;;;5089464;28;19953;-71
2021/09/06 06:20:29;;;;;;;;;;;27.80;99.90;;;;;;5089396;28;19917;-71
2021/09/06 06:22:54;;;;;;;;;;;28.30;99.90;;;;;;5088241;28;20284;-70
2021/09/06 06:25:20;;;;;;;;;;;28.70;99.90;;;;;;5105273;28;19912;-72
2021/09/06 06:27:45;;;;;;;;;;;29.10;99.90;;;;;;5109990;28;19911;-72
2021/09/06 06:30:11;;;;;;;;;;;29.70;99.90;;;;;;5091382;28;19912;-72
2021/09/06 06:32:37;;;;;;;;;;;30.10;99.90;;;;;;5108654;28;19912;-71
2021/09/06 06:35:02;;;;;;;;;;;30.50;99.90;;;;;;5109276;28;19919;-72
2021/09/06 06:37:28;;;;;;;;;;;31.20;99.90;;;;;;5117099;27;19972;-72
2021/09/06 06:39:53;;;;;;;;;;;32.10;99.90;;;;;;5131414;27;19911;-71
2021/09/06 06:42:19;;;;;;;;;;;32.40;99.90;;;;;;5132390;27;19930;-71
2021/09/06 06:44:44;;;;;;;;;;;33.40;99.90;;;;;;5132783;27;19946;-71
2021/09/06 06:47:10;;;;;;;;;;;34.00;99.90;;;;;;5133598;27;19913;-71
2021/09/06 06:49:35;;;;;;;;;;;34.20;99.90;;;;;;5131781;27;20372;-71
2021/09/06 06:52:01;;;;;;;;;;;34.40;99.90;;;;;;5112122;28;19915;-71
2021/09/06 06:54:27;;;;;;;;;;;34.40;99.90;;;;;;5110412;28;19912;-70
2021/09/06 06:56:52;;;;;;;;;;;34.40;99.90;;;;;;5093640;28;19908;-71
2021/09/06 06:59:18;;;;;;;;;;;34.60;99.90;;;;;;5111909;28;19930;-71
2021/09/06 07:01:43;;;;;;;;;;;34.90;98.00;;;;;;5112241;28;19907;-69
2021/09/06 07:04:09;;;;;;;;;;;34.40;95.20;;;;;;5110922;28;20290;-71
2021/09/06 07:06:34;;;;;;;;;;;34.90;92.50;;;;;;5112365;28;19994;-71
2021/09/06 07:09:00;;;;;;;;;;;35.70;89.30;;;;;;5110257;28;20314;-71
2021/09/06 07:11:26;;;;;;;;;;;35.50;81.30;;;;;;5110206;28;19907;-71
2021/09/06 07:16:19;;;;;;;;;;;36.50;69.80;;;;;;5097079;22;20035;-70
2021/09/06 07:18:45;;;;;;;;;;;36.60;63.80;;;;;;5090812;28;20125;-70
2021/09/06 07:21:11;;;;;;;;;;;37.40;58.80;;;;;;5091414;28;20049;-71
2021/09/06 07:23:36;;;;;;;;;;;37.70;55.20;;;;;;5089032;28;20002;-71
2021/09/06 07:26:02;;;;;;;;;;;38.20;51.50;;;;;;5108450;28;19959;-70
2021/09/06 07:28:27;;;;;;;;;;;38.10;46.80;;;;;;5111763;28;19987;-70
2021/09/06 07:30:53;;;;;;;;;;;38.60;42.90;;;;;;5111900;28;20022;-71
2021/09/06 07:33:18;;;;;;;;;;;38.90;38.50;;;;;;5110470;28;19965;-70
2021/09/06 07:35:44;;;;;;;;;;;38.90;34.40;;;;;;5110833;28;20133;-73
2021/09/06 07:38:09;;;;;;;;;;;39.00;30.40;;;;;;5110774;28;19957;-70
2021/09/06 07:40:35;;;;;;;;;;;39.30;28.50;;;;;;5110343;28;20371;-71
2021/09/06 07:43:01;;;;;;;;;;;39.10;24.80;;;;;;5110511;28;19908;-71
2021/09/06 07:45:27;;;;;;;;;;;38.70;22.10;;;;;;5110966;28;19908;-71
2021/09/06 07:47:53;;;;;;;;;;;39.20;19.90;;;;;;5110472;28;19919;-71
2021/09/06 07:50:19;;;;;;;;;;;40.40;18.10;;;;;;5110671;28;19912;-71
2021/09/06 07:52:46;;;;;;;;;;;40.60;15.70;;;;;;5109507;28;19908;-72
2021/09/06 07:55:11;;;;;;;;;;;40.00;12.20;;;;;;5109208;28;20298;-72
2021/09/06 07:57:37;;;;;;;;;;;41.40;11.50;;;;;;5110046;28;19908;-71
2021/09/06 08:00:03;;;;;;;;;;;43.00;9.60;;;;;;5109876;28;20043;-72
2021/09/06 08:02:36;;;;;;;;;;;44.10;17.70;;;;;;5109649;28;19911;-71
2021/09/06 08:05:01;;;;;;;;;;;44.70;4.70;;;;;;5109647;28;19980;-72
2021/09/06 08:07:27;;;;;;;;;;;45.00;1.40;;;;;;5110280;28;20348;-71
2021/09/06 08:09:53;;;;;;;;;;;44.60;1.00;;;;;;5090086;28;20288;-72
2021/09/06 08:12:18;;;;;;;;;;;45.30;1.00;;;;;;5109557;28;19911;-71
2021/09/06 08:14:44;;;;;;;;;;;45.10;1.00;;;;;;5109826;28;19916;-72
2021/09/06 08:17:11;;;;;;;;;;;45.60;1.00;;;;;;5109576;28;19908;-72
2021/09/06 08:19:36;;;;;;;;;;;45.10;1.00;;;;;;5109673;28;19916;-72
2021/09/06 08:22:02;;;;;;;;;;;44.10;1.00;;;;;;5109315;28;19912;-72
2021/09/06 08:24:28;;;;;;;;;;;44.20;1.00;;;;;;5108191;28;19954;-70
2021/09/06 08:26:53;;;;;;;;;;;46.10;1.00;;;;;;5110708;28;19915;-70
2021/09/06 08:29:19;;;;;;;;;;;47.30;1.00;;;;;;5109558;28;19911;-69
2021/09/06 08:31:44;;;;;;;;;;;48.70;1.00;;;;;;5109443;28;19911;-70
2021/09/06 08:34:10;;;;;;;;;;;49.70;1.00;;;;;;5108670;28;19960;-71
2021/09/06 08:36:35;;;;;;;;;;;50.30;1.00;;;;;;5109019;28;19919;-71
2021/09/06 08:39:01;;;;;;;;;;;48.80;1.00;;;;;;5109013;28;20333;-70
2021/09/06 08:41:26;;;;;;;;;;;47.70;1.00;;;;;;5108938;28;20021;-70
2021/09/06 08:43:52;;;;;;;;;;;48.30;1.00;;;;;;5108904;28;19912;-71
2021/09/06 08:46:21;;;;;;;;;;;48.80;1.00;;;;;;5109997;28;19953;-72
2021/09/06 08:48:47;;;;;;;;;;;48.30;1.00;;;;;;5109491;28;19957;-72
2021/09/06 08:51:12;;;;;;;;;;;48.10;1.00;;;;;;5191028;22;19963;-71
2021/09/06 08:53:38;;;;;;;;;;;47.90;1.00;;;;;;5108143;28;19973;-71
2021/09/06 08:56:03;;;;;;;;;;;46.60;1.00;;;;;;5108575;28;19912;-71
2021/09/06 08:58:29;;;;;;;;;;;46.30;1.00;;;;;;5109625;28;19911;-71
2021/09/06 09:00:56;;;;;;;;;;;46.50;1.00;;;;;;5109904;28;19981;-69
2021/09/06 09:03:21;;;;;;;;;;;47.30;1.00;;;;;;5108225;28;19908;-69
2021/09/06 09:05:56;;;;;;;;;;;47.90;1.00;;;;;;5109585;28;19919;-70
2021/09/06 09:08:22;;;;;;;;;;;48.10;1.00;;;;;;5109354;28;19912;-71
2021/09/06 09:10:47;;;;;;;;;;;46.90;1.00;;;;;;5108988;28;19912;-71
2021/09/06 09:13:13;;;;;;;;;;;46.20;1.00;;;;;;5107945;28;19915;-70
2021/09/06 09:15:38;;;;;;;;;;;45.70;1.00;;;;;;5098057;28;19916;-72
2021/09/06 09:18:06;;;;;;;;;;;45.60;1.00;;;;;;5097588;28;19987;-73
2021/09/06 09:20:39;;;;;;;;;;;45.60;1.00;;;;;;5099431;28;20386;-72
2021/09/06 09:23:05;;;;;;;;;;;45.90;1.00;;;;;;5097192;28;20364;-70
2021/09/06 09:25:31;;;;;;;;;;;47.00;1.00;;;;;;5097285;28;20003;-71
2021/09/06 09:27:57;;;;;;;;;;;46.10;1.00;;;;;;5104179;28;20054;-74
2021/09/06 09:30:23;;;;;;;;;;;45.20;1.00;;;;;;5105146;28;19951;-70
2021/09/06 09:33:05;;;;;;;;;;;44.50;1.00;;;;;;5102154;28;19916;-71
2021/09/06 09:35:31;;;;;;;;;;;45.00;1.00;;;;;;5103189;28;19916;-73
2021/09/06 09:38:03;;;;;;;;;;;45.60;1.00;;;;;;5103306;28;20559;-74
2021/09/06 09:40:33;;;;;;;;;;;44.50;1.00;;;;;;5100616;28;19916;-74
2021/09/06 09:42:59;;;;;;;;;;;43.60;1.00;;;;;;5103457;28;19987;-73
2021/09/06 09:45:25;;;;;;;;;;;43.50;1.00;;;;;;5101829;28;20010;-72
2021/09/06 09:47:55;;;;;;;;;;;43.70;1.00;;;;;;5103223;28;19911;-72
2021/09/06 09:50:22;;;;;;;;;;;44.50;1.00;;;;;;5099835;28;20035;-69
2021/09/06 09:52:51;;;;;;;;;;;44.20;1.00;;;;;;5101365;28;19912;-73
2021/09/06 09:55:17;;;;;;;;;;;44.00;1.00;;;;;;5100422;28;19920;-73
2021/09/06 09:57:43;;;;;;;;;;;44.80;1.00;;;;;;5101664;28;19993;-70
2021/09/06 10:00:08;;;;;;;;;;;44.90;1.00;;;;;;5102265;28;20053;-70
2021/09/06 10:02:34;;;;;;;;;;;44.30;1.00;;;;;;5100214;28;19912;-70
2021/09/06 10:05:02;;;;;;;;;;;43.70;1.00;;;;;;5101033;28;20042;-71
2021/09/06 10:07:30;;;;;;;;;;;42.60;1.00;;;;;;5103045;28;19912;-72
2021/09/06 10:09:56;;;;;;;;;;;42.60;1.00;;;;;;5099324;28;20053;-72
2021/09/06 10:12:23;;;;;;;;;;;41.90;1.00;;;;;;5100610;28;20010;-71
2021/09/06 10:14:49;;;;;;;;;;;41.20;1.00;;;;;;5102019;28;20360;-71
2021/09/06 10:17:15;;;;;;;;;;;40.20;1.00;;;;;;5101046;28;19912;-70
2021/09/06 10:19:40;;;;;;;;;;;39.70;1.00;;;;;;5100737;28;20417;-70
2021/09/06 10:22:06;;;;;;;;;;;39.70;1.00;;;;;;5100791;28;20372;-72
2021/09/06 10:24:32;;;;;;;;;;;40.20;1.00;;;;;;5101198;28;19919;-71
2021/09/06 10:27:04;;;;;;;;;;;40.50;1.00;;;;;;5103041;28;19912;-70
2021/09/06 10:29:30;;;;;;;;;;;39.80;1.00;;;;;;5101911;28;20398;-70
2021/09/06 10:31:59;;;;;;;;;;;39.10;1.00;;;;;;5100916;28;19920;-71
2021/09/06 10:34:28;;;;;;;;;;;38.30;1.00;;;;;;5099327;28;19962;-71
2021/09/06 10:36:58;;;;;;;;;;;37.70;1.00;;;;;;5102085;28;19964;-72
2021/09/06 10:39:24;;;;;;;;;;;37.30;1.00;;;;;;5100623;28;19995;-70
2021/09/06 10:41:50;;;;;;;;;;;37.10;1.00;;;;;;5099866;28;20007;-71
2021/09/06 10:44:18;;;;;;;;;;;36.60;1.00;;;;;;5095930;28;19919;-70
2021/09/06 10:46:57;;;;;;;;;;;35.90;1.00;;;;;;5095351;28;20361;-70
2021/09/06 10:49:26;;;;;;;;;;;35.80;1.00;;;;;;5097033;28;20294;-72
2021/09/06 10:51:53;;;;;;;;;;;36.00;1.00;;;;;;5118649;28;20337;-71
2021/09/06 10:54:19;;;;;;;;;;;36.30;1.00;;;;;;5122106;28;19908;-73
2021/09/06 10:56:44;;;;;;;;;;;36.20;1.00;;;;;;5124784;28;20020;-70
2021/09/06 10:59:10;;;;;;;;;;;35.80;1.00;;;;;;5120598;28;19983;-71
2021/09/06 11:01:37;;;;;;;;;;;35.40;1.00;;;;;;5118542;28;19915;-71
2021/09/06 11:04:02;;;;;;;;;;;34.00;1.00;;;;;;5112047;28;19907;-71
2021/09/06 11:06:28;;;;;;;;;;;33.40;1.00;;;;;;5111849;28;19912;-69
2021/09/06 11:08:54;;;;;;;;;;;33.50;1.00;;;;;;5111254;28;19913;-69
2021/09/06 11:11:20;;;;;;;;;;;33.70;1.00;;;;;;5111692;28;20151;-69
2021/09/06 11:13:46;;;;;;;;;;;33.90;1.00;;;;;;5111027;28;20244;-71
2021/09/06 11:16:12;;;;;;;;;;;33.30;1.00;;;;;;5111417;28;19958;-72
2021/09/06 11:18:39;;;;;;;;;;;33.00;1.00;;;;;;5107114;28;20249;-71
2021/09/06 11:21:05;;;;;;;;;;;32.50;1.00;;;;;;5111307;28;19915;-71
2021/09/06 11:23:35;;;;;;;;;;;32.80;1.00;;;;;;5110304;28;19916;-70
2021/09/06 11:26:01;;;;;;;;;;;32.40;1.00;;;;;;5110671;28;19964;-70
2021/09/06 11:28:26;;;;;;;;;;;32.20;1.00;;;;;;5111292;28;20014;-71
2021/09/06 11:30:52;;;;;;;;;;;31.70;1.00;;;;;;5111101;28;19921;-71
2021/09/06 11:33:18;;;;;;;;;;;31.40;1.00;;;;;;5110204;28;19908;-72
2021/09/06 11:35:45;;;;;;;;;;;31.20;1.00;;;;;;5110840;28;19959;-70
2021/09/06 11:38:11;;;;;;;;;;;30.90;1.00;;;;;;5110859;28;20329;-71
2021/09/06 11:40:37;;;;;;;;;;;31.10;1.00;;;;;;5110540;28;19914;-74
2021/09/06 11:43:04;;;;;;;;;;;31.20;1.00;;;;;;5110299;28;19918;-72
2021/09/06 11:45:30;;;;;;;;;;;31.30;1.00;;;;;;5110890;28;19915;-70
2021/09/06 11:48:05;;;;;;;;;;;31.40;1.00;;;;;;5110422;28;19912;-70
2021/09/06 11:50:32;;;;;;;;;;;31.60;1.00;;;;;;5110163;28;19916;-71
2021/09/06 11:53:02;;;;;;;;;;;31.40;1.00;;;;;;5109796;28;20425;-71
2021/09/06 11:55:28;;;;;;;;;;;31.40;1.00;;;;;;5110268;28;19956;-70
2021/09/06 11:58:03;;;;;;;;;;;31.70;1.00;;;;;;5111169;28;19908;-70
2021/09/06 12:00:29;;;;;;;;;;;31.60;1.00;;;;;;5111112;28;19912;-74
2021/09/06 12:02:59;;;;;;;;;;;31.20;1.00;;;;;;5109835;28;19961;-71
2021/09/06 12:05:35;;;;;;;;;;;31.10;1.00;;;;;;5110912;28;19984;-71
2021/09/06 12:08:00;;;;;;;;;;;31.30;1.00;;;;;;5103342;28;19954;-69
2021/09/06 12:10:30;;;;;;;;;;;31.30;1.00;;;;;;5105800;28;19942;-70
2021/09/06 12:12:57;;;;;;;;;;;31.20;1.00;;;;;;5110009;28;19907;-74
2021/09/06 12:15:23;;;;;;;;;;;31.20;1.00;;;;;;5109878;28;20006;-72
2021/09/06 12:17:48;;;;;;;;;;;30.80;1.00;;;;;;5111276;28;19947;-72
2021/09/06 12:20:14;;;;;;;;;;;29.80;1.00;;;;;;5109838;28;19908;-71
2021/09/06 12:22:39;;;;;;;;;;;29.60;1.00;;;;;;5109787;28;20411;-71
2021/09/06 12:25:06;;;;;;;;;;;29.70;1.00;;;;;;5108799;28;19939;-70
2021/09/06 12:27:34;;;;;;;;;;;29.60;1.00;;;;;;5110575;28;20489;-72
2021/09/06 12:29:59;;;;;;;;;;;29.50;1.00;;;;;;5110082;28;20268;-71
2021/09/06 12:32:27;;;;;;;;;;;29.20;1.10;;;;;;5109779;28;19911;-71
2021/09/06 12:34:52;;;;;;;;;;;29.10;1.60;;;;;;5091206;28;19998;-72
2021/09/06 12:37:18;;;;;;;;;;;29.10;1.80;;;;;;5113149;27;19990;-71
2021/09/06 12:39:43;;;;;;;;;;;28.90;1.60;;;;;;5130275;27;19907;-70
2021/09/06 12:42:09;;;;;;;;;;;28.70;1.00;;;;;;5129161;27;19915;-71
2021/09/06 12:44:34;;;;;;;;;;;28.80;1.00;;;;;;5130295;27;19908;-70
2021/09/06 12:47:03;;;;;;;;;;;28.70;2.30;;;;;;5130642;27;19911;-71
2021/09/06 12:49:28;;;;;;;;;;;28.40;12.70;;;;;;5129180;27;19907;-71
2021/09/06 12:51:55;;;;;;;;;;;28.20;3.50;;;;;;5109154;28;20303;-71
2021/09/06 12:54:20;;;;;;;;;;;28.30;3.50;;;;;;5109056;28;19915;-71
2021/09/06 12:56:47;;;;;;;;;;;28.30;4.10;;;;;;5108742;28;19908;-70
2021/09/06 12:59:12;;;;;;;;;;;28.20;3.60;;;;;;5109622;28;20287;-71
2021/09/06 13:01:38;;;;;;;;;;;28.00;4.20;;;;;;5109863;28;19922;-71
2021/09/06 13:04:04;;;;;;;;;;;27.90;5.50;;;;;;5109128;28;20341;-71
2021/09/06 13:06:29;;;;;;;;;;;28.00;5.20;;;;;;5110058;28;19915;-71
2021/09/06 13:08:55;;;;;;;;;;;27.70;5.60;;;;;;5110171;28;19907;-71
2021/09/06 13:11:20;;;;;;;;;;;27.30;6.10;;;;;;5087948;28;19969;-72
2021/09/06 13:13:46;;;;;;;;;;;26.90;6.70;;;;;;5106410;28;20089;-73
2021/09/06 13:16:11;;;;;;;;;;;26.60;8.10;;;;;;5115172;22;19931;-73
2021/09/06 13:18:37;;;;;;;;;;;26.40;8.80;;;;;;5109078;28;19912;-70
2021/09/06 13:21:03;;;;;;;;;;;26.20;9.50;;;;;;5109437;28;19911;-72
2021/09/06 13:23:29;;;;;;;;;;;26.10;10.70;;;;;;5108855;28;20037;-71
2021/09/06 13:25:55;;;;;;;;;;;26.10;12.00;;;;;;5105433;28;20075;-72
2021/09/06 13:28:24;;;;;;;;;;;25.80;12.80;;;;;;5094489;28;19919;-70
2021/09/06 13:30:50;;;;;;;;;;;25.70;14.70;;;;;;5109402;28;19908;-71
2021/09/06 13:33:15;;;;;;;;;;;25.80;16.70;;;;;;5108387;28;19922;-70
2021/09/06 13:35:41;;;;;;;;;;;25.90;18.80;;;;;;5109484;28;20436;-71
2021/09/06 13:38:06;;;;;;;;;;;25.90;17.00;;;;;;5099692;28;19954;-71
2021/09/06 13:40:32;;;;;;;;;;;25.90;16.30;;;;;;5088234;28;19908;-72
2021/09/06 13:42:57;;;;;;;;;;;25.80;17.00;;;;;;5088730;28;20236;-71
2021/09/06 13:45:23;;;;;;;;;;;25.60;15.80;;;;;;5088592;28;19927;-72
2021/09/06 13:47:48;;;;;;;;;;;25.50;16.30;;;;;;5089051;28;19916;-72
2021/09/06 13:50:14;;;;;;;;;;;25.50;16.80;;;;;;5082463;28;19924;-72
2021/09/06 13:52:39;;;;;;;;;;;25.50;17.10;;;;;;5068773;28;19959;-72
2021/09/06 13:55:05;;;;;;;;;;;25.50;17.60;;;;;;5067212;28;19913;-73
2021/09/06 13:57:30;;;;;;;;;;;25.60;18.30;;;;;;5068964;28;19992;-72
2021/09/06 13:59:56;;;;;;;;;;;25.70;17.90;;;;;;5068168;28;19908;-70
2021/09/06 14:02:21;;;;;;;;;;;25.80;17.80;;;;;;5068594;28;19913;-71
2021/09/06 14:04:47;;;;;;;;;;;25.80;18.10;;;;;;5068636;28;19915;-72
2021/09/06 14:07:13;;;;;;;;;;;25.70;17.50;;;;;;5069203;28;19986;-72
2021/09/06 14:09:39;;;;;;;;;;;25.60;17.20;;;;;;5068300;28;19939;-72
2021/09/06 14:12:10;;;;;;;;;;;25.50;17.10;;;;;;5067529;28;20012;-71
2021/09/06 14:14:36;;;;;;;;;;;25.40;17.10;;;;;;5069775;28;19912;-71
2021/09/06 14:17:02;;;;;;;;;;;25.40;17.60;;;;;;5072520;28;19938;-71
2021/09/06 14:19:27;;;;;;;;;;;25.40;18.10;;;;;;5071818;28;20011;-71
2021/09/06 14:21:53;;;;;;;;;;;25.40;19.10;;;;;;5072172;28;19995;-72